Time;durP1;ratioP1;P1;durP2;ratioP2;P2;SDS_P1;SDS_P2;PMS_P1;PMS_P2;Temp;Humidity;BMP_temperature;BMP_pressure;BME280_temperature;BME280_humidity;BME280_pressure;Samples;Min_cycle;Max_cycle;Signal;HPM_P1;HPM_P2
2021/03/20 00:00:29;0.00;0.00;0.62;0.00;0.00;0.62;2.00;1.00;;;21.60;23.30;;;;;;2241822;62;20378;-62
2021/03/20 00:03:16;0.00;0.00;0.62;0.00;0.00;0.62;1.50;1.00;;;21.70;23.20;;;;;;2241377;61;20471;-62
2021/03/20 00:06:02;0.00;0.00;0.62;0.00;0.00;0.62;1.30;0.70;;;21.70;23.10;;;;;;2241489;62;20485;-65
2021/03/20 00:08:48;0.00;0.00;0.62;0.00;0.00;0.62;1.40;0.70;;;21.70;23.10;;;;;;2241864;62;20408;-62
2021/03/20 00:11:35;0.00;0.00;0.62;0.00;0.00;0.62;1.50;0.90;;;21.60;23.00;;;;;;2241500;62;20406;-63
2021/03/20 00:14:22;0.00;0.00;0.62;0.00;0.00;0.62;1.30;0.80;;;21.60;23.00;;;;;;2241504;62;20374;-64
2021/03/20 00:17:07;0.00;0.00;0.62;0.00;0.00;0.62;1.40;0.83;;;21.60;23.00;;;;;;2241378;62;20410;-60
2021/03/20 00:19:51;0.00;0.00;0.62;0.00;0.00;0.62;1.47;0.90;;;21.60;23.10;;;;;;2241616;62;20371;-61
2021/03/20 00:22:36;0.00;0.00;0.62;0.00;0.00;0.62;1.43;0.83;;;21.60;23.10;;;;;;2241768;61;20437;-60
2021/03/20 00:25:21;0.00;0.00;0.62;0.00;0.00;0.62;1.73;0.90;;;21.60;23.10;;;;;;2241732;62;20368;-61
2021/03/20 00:28:11;0.00;0.00;0.62;0.00;0.00;0.62;1.30;0.80;;;21.60;23.10;;;;;;2241480;62;20371;-61
2021/03/20 00:30:59;0.00;0.00;0.62;0.00;0.00;0.62;1.60;1.00;;;21.60;23.10;;;;;;2241495;62;20370;-61
2021/03/20 00:33:44;0.00;0.00;0.62;0.00;0.00;0.62;1.50;0.80;;;21.60;23.10;;;;;;2241616;62;20385;-62
2021/03/20 00:36:30;0.00;0.00;0.62;0.00;0.00;0.62;1.30;0.90;;;21.60;23.00;;;;;;2241490;62;20682;-61
2021/03/20 00:39:14;0.00;0.00;0.62;0.00;0.00;0.62;2.00;0.90;;;21.60;23.00;;;;;;2241447;62;20591;-60
2021/03/20 00:41:59;0.00;0.00;0.62;0.00;0.00;0.62;1.53;0.90;;;21.60;23.00;;;;;;2241408;61;20414;-63
2021/03/20 00:44:45;0.00;0.00;0.62;0.00;0.00;0.62;1.43;0.80;;;21.60;23.00;;;;;;2244007;61;20510;-60
2021/03/20 00:47:29;0.00;0.00;0.62;0.00;0.00;0.62;1.70;0.80;;;21.60;23.00;;;;;;2241370;62;20373;-60
2021/03/20 00:50:16;0.00;0.00;0.62;0.00;0.00;0.62;1.53;1.00;;;21.60;23.10;;;;;;2241400;62;20362;-60
2021/03/20 00:53:01;0.00;0.00;0.62;0.00;0.00;0.62;1.30;0.80;;;21.60;23.10;;;;;;2241858;61;20491;-60
2021/03/20 00:55:47;0.00;0.00;0.62;0.00;0.00;0.62;1.67;0.80;;;21.60;23.00;;;;;;2241358;62;20397;-61
2021/03/20 00:58:36;0.00;0.00;0.62;0.00;0.00;0.62;1.20;0.70;;;21.60;23.00;;;;;;2241450;62;20371;-61
2021/03/20 01:01:23;0.00;0.00;0.62;0.00;0.00;0.62;1.57;0.70;;;21.60;23.00;;;;;;2241534;62;20371;-63
2021/03/20 01:04:07;0.00;0.00;0.62;0.00;0.00;0.62;1.40;0.80;;;21.60;23.00;;;;;;2240977;62;20412;-64
2021/03/20 01:06:52;0.00;0.00;0.62;0.00;0.00;0.62;1.40;0.83;;;21.60;23.00;;;;;;2241384;62;21124;-61
2021/03/20 01:09:37;0.00;0.00;0.62;0.00;0.00;0.62;1.60;0.90;;;21.60;23.00;;;;;;2241457;62;20384;-61
2021/03/20 01:12:22;0.00;0.00;0.62;0.00;0.00;0.62;1.20;0.80;;;21.60;23.10;;;;;;2241068;61;20441;-60
2021/03/20 01:15:09;0.00;0.00;0.62;0.00;0.00;0.62;1.37;0.83;;;21.60;23.00;;;;;;2244114;61;20586;-61
2021/03/20 01:17:55;0.00;0.00;0.62;0.00;0.00;0.62;1.87;0.70;;;21.60;22.90;;;;;;2241421;62;20364;-61
2021/03/20 01:20:41;0.00;0.00;0.62;0.00;0.00;0.62;1.40;0.90;;;21.60;22.90;;;;;;2241270;62;20596;-65
2021/03/20 01:23:26;0.00;0.00;0.62;0.00;0.00;0.62;1.73;0.90;;;21.60;22.80;;;;;;2241261;61;20425;-61
2021/03/20 01:26:10;0.00;0.00;0.62;0.00;0.00;0.62;2.10;1.00;;;21.60;22.90;;;;;;2241244;62;20442;-60
2021/03/20 01:28:55;0.00;0.00;0.62;0.00;0.00;0.62;1.60;0.80;;;21.60;22.90;;;;;;2241860;62;20706;-64
2021/03/20 01:31:40;0.00;0.00;0.62;0.00;0.00;0.62;2.03;0.97;;;21.60;22.90;;;;;;2241026;62;20794;-63
2021/03/20 01:34:25;0.00;0.00;0.62;0.00;0.00;0.62;1.73;0.90;;;21.60;22.90;;;;;;2243623;61;20637;-61
2021/03/20 01:37:10;0.00;0.00;0.62;0.00;0.00;0.62;1.60;0.83;;;21.60;23.30;;;;;;2241745;62;20407;-61
2021/03/20 01:39:55;0.00;0.00;0.62;0.00;0.00;0.62;1.60;0.90;;;21.60;23.00;;;;;;2241176;62;20397;-60
2021/03/20 01:42:41;0.00;0.00;0.62;0.00;0.00;0.62;1.30;0.80;;;21.60;23.00;;;;;;2241166;62;20426;-62
2021/03/20 01:45:29;0.00;0.00;0.62;0.00;0.00;0.62;1.60;1.10;;;21.60;23.00;;;;;;2241773;62;20695;-60
2021/03/20 01:48:21;0.00;0.00;0.62;0.00;0.00;0.62;2.00;1.03;;;21.60;22.90;;;;;;2241313;62;20370;-61
2021/03/20 01:51:12;0.00;0.00;0.62;0.00;0.00;0.62;1.87;1.20;;;21.60;22.90;;;;;;2241654;62;20369;-62
2021/03/20 01:53:59;0.00;0.00;0.62;0.00;0.00;0.62;1.93;1.40;;;21.60;22.80;;;;;;2241120;62;20432;-62
2021/03/20 01:56:45;0.00;0.00;0.62;0.00;0.00;0.62;1.67;1.27;;;21.60;22.70;;;;;;2241003;62;20728;-61
2021/03/20 01:59:31;0.00;0.00;0.62;0.00;0.00;0.62;2.03;1.30;;;21.50;22.50;;;;;;2242374;62;20366;-61
2021/03/20 02:02:16;0.00;0.00;0.62;0.00;0.00;0.62;2.10;1.50;;;21.50;22.40;;;;;;2241772;61;20438;-62
2021/03/20 02:05:01;0.00;0.00;0.62;0.00;0.00;0.62;2.23;1.50;;;21.50;22.30;;;;;;2241936;62;20469;-62
2021/03/20 02:07:47;0.00;0.00;0.62;0.00;0.00;0.62;2.50;1.50;;;21.50;22.20;;;;;;2242190;62;20481;-61
2021/03/20 02:10:35;0.00;0.00;0.62;0.00;0.00;0.62;3.40;1.50;;;21.50;22.10;;;;;;2241772;62;20448;-62
2021/03/20 02:13:29;0.00;0.00;0.62;0.00;0.00;0.62;2.37;1.77;;;21.40;22.00;;;;;;2241905;61;20406;-62
2021/03/20 02:16:20;0.00;0.00;0.62;0.00;0.00;0.62;2.37;1.50;;;21.40;21.80;;;;;;2241701;62;20373;-62
2021/03/20 02:19:23;0.00;0.00;0.62;0.00;0.00;0.62;3.00;1.53;;;21.40;22.30;;;;;;2241969;62;20372;-61
2021/03/20 02:22:15;0.00;0.00;0.62;0.00;0.00;0.62;2.20;1.50;;;21.40;21.80;;;;;;2242114;61;20434;-62
2021/03/20 02:26:03;0.00;0.00;0.62;0.00;0.00;0.62;3.63;1.80;;;21.30;21.70;;;;;;2241744;62;20401;-62
2021/03/20 02:29:18;0.00;0.00;0.62;0.00;0.00;0.62;2.40;1.87;;;21.30;21.60;;;;;;2241683;62;20421;-62
2021/03/20 02:32:40;0.00;0.00;0.62;0.00;0.00;0.62;2.33;1.87;;;21.20;21.60;;;;;;2243975;61;20426;-62
2021/03/20 02:35:34;0.00;0.00;0.62;0.00;0.00;0.62;2.80;2.00;;;21.20;21.50;;;;;;2242133;62;20468;-62
2021/03/20 02:38:30;0.00;0.00;0.62;0.00;0.00;0.62;2.33;1.93;;;21.20;21.50;;;;;;2241684;62;20629;-62
2021/03/20 02:41:25;0.00;0.00;0.62;0.00;0.00;0.62;2.17;1.80;;;21.10;21.40;;;;;;2241763;62;20468;-62
2021/03/20 02:44:18;0.00;0.00;0.62;0.00;0.00;0.62;2.17;1.87;;;21.10;21.30;;;;;;2242275;62;20765;-62
2021/03/20 02:47:05;0.00;0.00;0.62;0.00;0.00;0.62;1.90;1.40;;;21.10;21.30;;;;;;2241599;62;20815;-62
2021/03/20 02:50:00;0.00;0.00;0.62;0.00;0.00;0.62;2.50;1.70;;;21.00;21.20;;;;;;2241976;62;20405;-62
2021/03/20 02:52:54;0.00;0.00;0.62;0.00;0.00;0.62;4.17;1.70;;;21.00;21.20;;;;;;2241158;61;20390;-62
2021/03/20 02:55:44;0.00;0.00;0.62;0.00;0.00;0.62;1.90;1.67;;;20.90;21.20;;;;;;2241717;62;20765;-62
2021/03/20 02:58:35;0.00;0.00;0.62;0.00;0.00;0.62;2.10;1.83;;;20.90;21.20;;;;;;2242176;62;20458;-62
2021/03/20 03:01:25;0.00;0.00;0.62;0.00;0.00;0.62;3.10;2.40;;;20.90;21.10;;;;;;2241564;62;20424;-62
2021/03/20 03:04:15;0.00;0.00;0.62;0.00;0.00;0.62;4.20;3.10;;;20.90;21.10;;;;;;2241763;62;20406;-61
2021/03/20 03:07:06;0.00;0.00;0.62;0.00;0.00;0.62;7.10;4.30;;;20.80;21.10;;;;;;2241506;62;20402;-62
2021/03/20 03:09:56;0.00;0.00;0.62;0.00;0.00;0.62;7.57;4.40;;;20.80;21.00;;;;;;2241679;62;20420;-62
2021/03/20 03:12:46;0.00;0.00;0.62;0.00;0.00;0.62;7.77;5.50;;;20.80;21.00;;;;;;2241993;61;20425;-61
2021/03/20 03:15:36;0.00;0.00;0.62;0.00;0.00;0.62;8.07;4.97;;;20.70;20.90;;;;;;2241504;62;20615;-62
2021/03/20 03:18:25;0.00;0.00;0.62;0.00;0.00;0.62;7.37;4.63;;;20.70;21.00;;;;;;2241301;62;20380;-61
2021/03/20 03:21:13;0.00;0.00;0.62;0.00;0.00;0.62;8.00;4.63;;;20.70;20.90;;;;;;2241905;62;20378;-63
2021/03/20 03:23:59;0.00;0.00;0.62;0.00;0.00;0.62;7.70;5.23;;;20.70;21.00;;;;;;2241577;62;20402;-61
2021/03/20 03:26:50;0.00;0.00;0.62;0.00;0.00;0.62;6.47;4.23;;;20.60;20.80;;;;;;2241676;62;20623;-59
2021/03/20 03:29:37;0.00;0.00;0.62;0.00;0.00;0.62;6.80;4.27;;;20.60;20.80;;;;;;2241474;62;20374;-59
2021/03/20 03:32:31;0.00;0.00;0.62;0.00;0.00;0.62;5.87;4.20;;;20.60;20.90;;;;;;2241062;61;20809;-61
2021/03/20 03:35:21;0.00;0.00;0.62;0.00;0.00;0.62;6.57;3.80;;;20.50;20.80;;;;;;2241921;62;20413;-60
2021/03/20 03:38:17;0.00;0.00;0.62;0.00;0.00;0.62;5.67;3.77;;;20.50;20.80;;;;;;2241554;62;20460;-61
2021/03/20 03:41:09;0.00;0.00;0.62;0.00;0.00;0.62;6.33;4.53;;;20.40;20.70;;;;;;2241496;62;20413;-62
2021/03/20 03:43:54;0.00;0.00;0.62;0.00;0.00;0.62;4.70;3.40;;;20.40;20.70;;;;;;2241966;62;20481;-63
2021/03/20 03:46:45;0.00;0.00;0.62;0.00;0.00;0.62;4.90;3.53;;;20.40;20.70;;;;;;2241629;62;20413;-60
2021/03/20 03:49:30;0.00;0.00;0.62;0.00;0.00;0.62;5.30;3.80;;;20.30;20.60;;;;;;2241874;62;20400;-61
2021/03/20 03:52:16;0.00;0.00;0.62;0.00;0.00;0.62;4.63;3.30;;;20.30;20.60;;;;;;2241369;62;20464;-62
2021/03/20 03:55:00;0.00;0.00;0.62;0.00;0.00;0.62;6.40;3.50;;;20.30;20.60;;;;;;2243871;61;20414;-60
2021/03/20 03:58:27;0.00;0.00;0.62;0.00;0.00;0.62;4.90;3.57;;;20.30;20.70;;;;;;2244395;61;20445;-61
2021/03/20 04:01:25;0.00;0.00;0.62;0.00;0.00;0.62;6.30;3.23;;;20.20;20.60;;;;;;2241646;62;20381;-61
2021/03/20 04:04:28;0.00;0.00;0.62;0.00;0.00;0.62;4.87;3.50;;;20.20;20.50;;;;;;2241999;62;20619;-59
2021/03/20 04:07:27;0.00;0.00;0.62;0.00;0.00;0.62;4.20;3.23;;;20.10;20.40;;;;;;2241572;62;20369;-62
2021/03/20 04:10:24;0.00;0.00;0.62;0.00;0.00;0.62;4.27;3.07;;;20.10;20.40;;;;;;2241551;62;20372;-61
2021/03/20 04:13:16;0.00;0.00;0.62;0.00;0.00;0.62;4.00;2.97;;;20.00;20.30;;;;;;2241958;61;20449;-62
2021/03/20 04:16:08;0.00;0.00;0.62;0.00;0.00;0.62;5.07;3.40;;;20.10;20.30;;;;;;2241450;62;20437;-60
2021/03/20 04:19:03;0.00;0.00;0.62;0.00;0.00;0.62;4.77;2.77;;;20.00;20.20;;;;;;2241708;62;20379;-62
2021/03/20 04:21:54;0.00;0.00;0.62;0.00;0.00;0.62;4.37;2.77;;;20.00;20.30;;;;;;2243599;61;20411;-60
2021/03/20 04:24:44;0.00;0.00;0.62;0.00;0.00;0.62;3.50;2.73;;;19.90;20.20;;;;;;2238269;62;20381;-62
2021/03/20 04:27:33;0.00;0.00;0.62;0.00;0.00;0.62;4.53;3.30;;;19.90;20.20;;;;;;2241447;62;20376;-62
2021/03/20 04:30:23;0.00;0.00;0.62;0.00;0.00;0.62;4.80;3.23;;;19.90;20.20;;;;;;2241363;62;20440;-62
2021/03/20 04:33:22;0.00;0.00;0.62;0.00;0.00;0.62;3.87;2.83;;;19.90;20.20;;;;;;2241468;61;20387;-62
2021/03/20 04:36:16;0.00;0.00;0.62;0.00;0.00;0.62;3.40;2.53;;;19.80;20.20;;;;;;2241090;62;20724;-62
2021/03/20 04:39:03;0.00;0.00;0.62;0.00;0.00;0.62;2.77;2.50;;;19.80;20.20;;;;;;2241474;62;20364;-61
2021/03/20 04:41:49;0.00;0.00;0.62;0.00;0.00;0.62;4.17;2.50;;;19.80;20.20;;;;;;2241826;61;20588;-62
2021/03/20 04:44:35;0.00;0.00;0.62;0.00;0.00;0.62;2.93;2.70;;;19.80;20.20;;;;;;2238192;62;20675;-62
2021/03/20 04:47:24;0.00;0.00;0.62;0.00;0.00;0.62;4.60;2.83;;;19.70;20.60;;;;;;2241260;62;20382;-63
2021/03/20 04:50:25;0.00;0.00;0.62;0.00;0.00;0.62;3.27;2.60;;;19.70;20.10;;;;;;2241849;62;20421;-62
2021/03/20 04:53:13;0.00;0.00;0.62;0.00;0.00;0.62;3.80;2.33;;;19.70;20.10;;;;;;2241207;61;20392;-62
2021/03/20 04:56:05;0.00;0.00;0.62;0.00;0.00;0.62;3.93;2.60;;;19.70;20.10;;;;;;2241741;62;20394;-61
2021/03/20 04:58:55;0.00;0.00;0.62;0.00;0.00;0.62;2.97;2.67;;;19.60;20.00;;;;;;2241339;62;20444;-62
2021/03/20 05:01:47;0.00;0.00;0.62;0.00;0.00;0.62;3.33;2.87;;;19.60;20.00;;;;;;2241419;62;20369;-62
2021/03/20 05:04:39;0.00;0.00;0.62;0.00;0.00;0.62;2.93;2.10;;;19.60;20.00;;;;;;2241887;62;20403;-62
2021/03/20 05:07:24;0.00;0.00;0.62;0.00;0.00;0.62;4.10;2.50;;;19.50;20.00;;;;;;2243530;61;20444;-62
2021/03/20 05:10:19;0.00;0.00;0.62;0.00;0.00;0.62;5.37;2.43;;;19.50;20.00;;;;;;2241483;62;20375;-62
2021/03/20 05:13:11;0.00;0.00;0.62;0.00;0.00;0.62;2.37;1.93;;;19.50;20.00;;;;;;2240797;61;20652;-62
2021/03/20 05:16:01;0.00;0.00;0.62;0.00;0.00;0.62;3.20;2.30;;;19.50;20.00;;;;;;2241247;62;20363;-61
2021/03/20 05:18:47;0.00;0.00;0.62;0.00;0.00;0.62;4.90;2.87;;;19.50;20.00;;;;;;2241818;62;20376;-62
2021/03/20 05:21:35;0.00;0.00;0.62;0.00;0.00;0.62;2.90;2.20;;;19.40;20.00;;;;;;2241072;62;20377;-62
2021/03/20 05:24:25;0.00;0.00;0.62;0.00;0.00;0.62;3.30;2.53;;;19.40;20.00;;;;;;2241375;62;20438;-62
2021/03/20 05:27:16;0.00;0.00;0.62;0.00;0.00;0.62;2.50;2.10;;;19.40;20.00;;;;;;2241589;62;20369;-61
2021/03/20 05:30:03;0.00;0.00;0.62;0.00;0.00;0.62;2.80;1.97;;;19.40;20.00;;;;;;2241333;62;20384;-62
2021/03/20 05:32:47;0.00;0.00;0.62;0.00;0.00;0.62;3.40;2.80;;;19.30;19.90;;;;;;2242114;61;20406;-62
2021/03/20 05:35:32;0.00;0.00;0.62;0.00;0.00;0.62;3.23;2.90;;;19.30;20.00;;;;;;2241737;62;20393;-61
2021/03/20 05:38:17;0.00;0.00;0.62;0.00;0.00;0.62;3.13;2.30;;;19.30;20.00;;;;;;2241999;62;20781;-62
2021/03/20 05:41:12;0.00;0.00;0.62;0.00;0.00;0.62;2.67;2.10;;;19.30;19.90;;;;;;2242318;62;20453;-63
2021/03/20 05:44:18;0.00;0.00;0.62;0.00;0.00;0.62;3.40;2.30;;;19.30;20.00;;;;;;2241762;62;20464;-62
2021/03/20 05:47:16;0.00;0.00;0.62;0.00;0.00;0.62;2.87;2.33;;;19.20;19.90;;;;;;2242092;62;20416;-62
2021/03/20 05:50:14;0.00;0.00;0.62;0.00;0.00;0.62;5.47;2.60;;;19.20;19.90;;;;;;2241808;62;20400;-62
2021/03/20 05:53:43;0.00;0.00;0.62;0.00;0.00;0.62;2.27;1.80;;;19.20;19.90;;;;;;2242076;61;20459;-62
2021/03/20 05:56:40;0.00;0.00;0.62;0.00;0.00;0.62;2.47;2.10;;;19.20;20.40;;;;;;2233456;62;20831;-62
2021/03/20 05:59:37;0.00;0.00;0.62;0.00;0.00;0.62;2.87;2.17;;;19.10;19.80;;;;;;2241937;62;20372;-62
2021/03/20 06:02:35;0.00;0.00;0.62;0.00;0.00;0.62;3.73;2.93;;;19.10;19.80;;;;;;2242187;61;20608;-62
2021/03/20 06:05:35;0.00;0.00;0.62;0.00;0.00;0.62;3.57;2.53;;;19.10;19.90;;;;;;2241826;62;20461;-62
2021/03/20 06:08:44;0.00;0.00;0.62;0.00;0.00;0.62;2.83;2.37;;;19.10;19.90;;;;;;2241877;62;20738;-62
2021/03/20 06:11:45;0.00;0.00;0.62;0.00;0.00;0.62;2.80;2.27;;;19.10;19.90;;;;;;2242278;62;20376;-62
2021/03/20 06:15:01;0.00;0.00;0.62;0.00;0.00;0.62;3.50;2.57;;;19.10;19.90;;;;;;2242105;62;20397;-62
2021/03/20 06:18:28;0.00;0.00;0.62;0.00;0.00;0.62;4.10;2.43;;;19.00;19.80;;;;;;2242195;62;20808;-62
2021/03/20 06:21:28;0.00;0.00;0.62;0.00;0.00;0.62;2.80;2.50;;;19.00;19.90;;;;;;2241685;62;20372;-62
2021/03/20 06:25:00;0.00;0.00;0.62;0.00;0.00;0.62;3.93;2.83;;;19.00;19.90;;;;;;2241812;62;20403;-62
2021/03/20 06:27:50;0.00;0.00;0.62;0.00;0.00;0.62;3.50;2.20;;;19.00;19.90;;;;;;2241594;62;20388;-62
2021/03/20 06:30:42;0.00;0.00;0.62;0.00;0.00;0.62;3.00;2.37;;;19.00;19.90;;;;;;2241899;62;20501;-62
2021/03/20 06:33:33;0.00;0.00;0.62;0.00;0.00;0.62;3.60;2.23;;;19.00;19.90;;;;;;2241898;61;20403;-62
2021/03/20 06:36:25;0.00;0.00;0.62;0.00;0.00;0.62;2.50;2.20;;;19.00;19.90;;;;;;2241778;62;20391;-62
2021/03/20 06:39:21;0.00;0.00;0.62;0.00;0.00;0.62;4.33;2.60;;;18.90;20.40;;;;;;2241910;62;20490;-62
2021/03/20 06:42:15;0.00;0.00;0.62;0.00;0.00;0.62;2.70;2.10;;;18.90;19.90;;;;;;2241409;61;20733;-61
2021/03/20 06:45:05;0.00;0.00;0.62;0.00;0.00;0.62;3.10;2.10;;;18.90;19.90;;;;;;2244162;61;20469;-61
2021/03/20 06:47:56;0.00;0.00;0.62;0.00;0.00;0.62;4.57;2.83;;;18.90;19.90;;;;;;2241731;62;20375;-60
2021/03/20 06:50:45;0.00;0.00;0.62;0.00;0.00;0.62;3.40;3.10;;;18.90;19.90;;;;;;2241588;62;20365;-61
2021/03/20 06:53:52;0.00;0.00;0.62;0.00;0.00;0.62;3.87;2.77;;;18.90;19.90;;;;;;2241904;61;20438;-61
2021/03/20 06:56:37;0.00;0.00;0.62;0.00;0.00;0.62;3.30;2.03;;;18.90;19.90;;;;;;2241407;62;20361;-60
2021/03/20 06:59:24;0.00;0.00;0.62;0.00;0.00;0.62;2.93;2.47;;;18.90;19.90;;;;;;2241457;62;20423;-61
2021/03/20 07:02:24;0.00;0.00;0.62;0.00;0.00;0.62;2.37;2.10;;;18.80;19.80;;;;;;2244241;61;20421;-62
2021/03/20 07:05:20;0.00;0.00;0.62;0.00;0.00;0.62;4.90;2.77;;;18.80;19.80;;;;;;2241520;62;20408;-60
2021/03/20 07:08:31;0.00;0.00;0.62;0.00;0.00;0.62;4.47;2.40;;;18.80;19.80;;;;;;2243770;61;20374;-63
2021/03/20 07:11:27;0.00;0.00;0.62;0.00;0.00;0.62;2.80;2.20;;;18.80;19.80;;;;;;2241772;62;20377;-60
2021/03/20 07:14:39;0.00;0.00;0.62;0.00;0.00;0.62;3.80;2.10;;;18.80;19.80;;;;;;2241074;62;20895;-62
2021/03/20 07:17:35;0.00;0.00;0.62;0.00;0.00;0.62;3.80;3.03;;;18.80;19.80;;;;;;2241923;62;20419;-60
2021/03/20 07:20:27;0.00;0.00;0.62;0.00;0.00;0.62;2.20;1.73;;;18.80;19.90;;;;;;2241436;62;20378;-61
2021/03/20 07:23:15;0.00;0.00;0.62;0.00;0.00;0.62;3.40;2.33;;;18.70;19.80;;;;;;2241422;61;20399;-60
2021/03/20 07:26:10;0.00;0.00;0.62;0.00;0.00;0.62;3.03;2.20;;;18.70;19.80;;;;;;2241753;62;20635;-60
2021/03/20 07:28:58;0.00;0.00;0.62;0.00;0.00;0.62;2.80;2.00;;;18.70;19.80;;;;;;2241333;62;20373;-61
2021/03/20 07:31:55;0.00;0.00;0.62;0.00;0.00;0.62;2.97;2.00;;;18.70;19.80;;;;;;2241681;62;20740;-61
2021/03/20 07:34:41;0.00;0.00;0.62;0.00;0.00;0.62;2.90;2.60;;;18.70;19.80;;;;;;2241536;62;20381;-61
2021/03/20 07:37:29;0.00;0.00;0.62;0.00;0.00;0.62;2.83;2.23;;;18.70;19.80;;;;;;2241034;62;20381;-60
2021/03/20 07:40:31;0.00;0.00;0.62;0.00;0.00;0.62;4.70;2.70;;;18.70;19.80;;;;;;2241791;62;20446;-61
2021/03/20 07:43:19;0.00;0.00;0.62;0.00;0.00;0.62;2.80;2.07;;;18.70;19.80;;;;;;2241674;61;20419;-62
2021/03/20 07:46:13;0.00;0.00;0.62;0.00;0.00;0.62;4.47;2.60;;;18.70;19.80;;;;;;2241739;62;20405;-62
2021/03/20 07:49:01;0.00;0.00;0.62;0.00;0.00;0.62;3.00;2.00;;;18.70;19.80;;;;;;2238310;62;20406;-62
2021/03/20 07:51:50;0.00;0.00;0.62;0.00;0.00;0.62;3.97;2.37;;;18.70;19.80;;;;;;2240786;62;20373;-62
2021/03/20 07:54:37;0.00;0.00;0.62;0.00;0.00;0.62;3.23;2.10;;;18.70;19.80;;;;;;2241781;62;20402;-62
2021/03/20 07:57:22;0.00;0.00;0.62;0.00;0.00;0.62;3.50;2.50;;;18.70;19.70;;;;;;2241555;62;20379;-62
2021/03/20 08:00:25;0.00;0.00;0.62;0.00;0.00;0.62;2.70;2.33;;;18.70;19.80;;;;;;2241461;62;20367;-62
2021/03/20 08:03:16;0.00;0.00;0.62;0.00;0.00;0.62;2.70;1.83;;;18.60;19.70;;;;;;2241639;61;20393;-62
2021/03/20 08:06:13;0.00;0.00;0.62;0.00;0.00;0.62;3.67;2.23;;;18.70;19.80;;;;;;2241509;62;20757;-61
2021/03/20 08:09:27;0.00;0.00;0.62;0.00;0.00;0.62;2.80;1.93;;;18.70;19.80;;;;;;2241758;62;20374;-61
2021/03/20 08:12:13;0.00;0.00;0.62;0.00;0.00;0.62;3.30;2.17;;;18.60;19.70;;;;;;2241295;61;20392;-62
2021/03/20 08:15:01;0.00;0.00;0.62;0.00;0.00;0.62;3.30;2.10;;;18.60;19.70;;;;;;2241302;62;20378;-61
2021/03/20 08:17:46;0.00;0.00;0.62;0.00;0.00;0.62;2.60;2.00;;;18.60;19.70;;;;;;2241817;62;20376;-62
2021/03/20 08:20:31;0.00;0.00;0.62;0.00;0.00;0.62;3.23;1.97;;;18.60;19.70;;;;;;2241181;62;20745;-62
2021/03/20 08:23:50;0.00;0.00;0.62;0.00;0.00;0.62;4.13;2.17;;;18.60;19.70;;;;;;2241612;61;20406;-61
2021/03/20 08:26:48;0.00;0.00;0.62;0.00;0.00;0.62;3.53;2.30;;;18.60;19.70;;;;;;2241384;62;20425;-61
2021/03/20 08:29:57;0.00;0.00;0.62;0.00;0.00;0.62;3.27;2.37;;;18.60;19.70;;;;;;2240068;62;20487;-61
2021/03/20 08:33:01;0.00;0.00;0.62;0.00;0.00;0.62;4.40;2.90;;;18.60;19.80;;;;;;2238418;62;20763;-63
2021/03/20 08:36:02;0.00;0.00;0.62;0.00;0.00;0.62;2.77;1.57;;;18.60;19.80;;;;;;2241032;62;20392;-61
2021/03/20 08:39:03;0.00;0.00;0.62;0.00;0.00;0.62;3.27;2.20;;;18.60;19.80;;;;;;2241864;62;20382;-63
2021/03/20 08:42:04;0.00;0.00;0.62;0.00;0.00;0.62;3.53;1.80;;;18.60;20.40;;;;;;2238251;62;20401;-63
2021/03/20 08:45:10;0.00;0.00;0.62;0.00;0.00;0.62;3.47;2.10;;;18.60;19.90;;;;;;2241305;62;20401;-62
2021/03/20 08:48:24;0.00;0.00;0.62;0.00;0.00;0.62;2.20;1.60;;;18.60;19.90;;;;;;2240991;62;20361;-63
2021/03/20 08:51:35;0.00;0.00;0.62;0.00;0.00;0.62;3.20;1.87;;;18.70;20.00;;;;;;2243361;61;20453;-64
2021/03/20 08:54:54;0.00;0.00;0.62;0.00;0.00;0.62;3.23;1.90;;;18.70;20.10;;;;;;2238721;62;20377;-61
2021/03/20 08:57:51;0.00;0.00;0.62;0.00;0.00;0.62;2.40;1.53;;;18.70;20.10;;;;;;2241308;62;20441;-63
2021/03/20 09:00:50;0.00;0.00;0.62;0.00;0.00;0.62;2.70;1.83;;;18.70;20.20;;;;;;2241765;62;20379;-61
2021/03/20 09:03:41;0.00;0.00;0.62;0.00;0.00;0.62;2.13;1.23;;;18.70;20.20;;;;;;2241444;61;20788;-63
2021/03/20 09:06:33;0.00;0.00;0.62;0.00;0.00;0.62;2.80;1.60;;;18.80;20.30;;;;;;2241729;62;20379;-62
2021/03/20 09:09:27;0.00;0.00;0.62;0.00;0.00;0.62;1.63;1.30;;;18.80;20.30;;;;;;2242296;62;20583;-60
2021/03/20 09:12:22;0.00;0.00;0.62;0.00;0.00;0.62;2.50;1.60;;;18.80;20.40;;;;;;2242311;61;20493;-63
2021/03/20 09:15:20;0.00;0.00;0.62;0.00;0.00;0.62;3.37;1.47;;;18.90;20.40;;;;;;2242115;62;20795;-61
2021/03/20 09:18:05;0.00;0.00;0.62;0.00;0.00;0.62;2.33;1.37;;;18.90;20.50;;;;;;2242080;62;20376;-60
2021/03/20 09:20:58;0.00;0.00;0.62;0.00;0.00;0.62;2.07;1.30;;;18.90;20.50;;;;;;2241676;62;20420;-61
2021/03/20 09:23:47;0.00;0.00;0.62;0.00;0.00;0.62;3.37;1.40;;;18.90;20.50;;;;;;2242229;61;20420;-60
2021/03/20 09:26:42;0.00;0.00;0.62;0.00;0.00;0.62;2.43;1.37;;;19.00;20.50;;;;;;2242257;62;20365;-60
2021/03/20 09:29:29;0.00;0.00;0.62;0.00;0.00;0.62;1.70;1.23;;;19.00;20.60;;;;;;2241798;62;20391;-59
2021/03/20 09:32:18;0.00;0.00;0.62;0.00;0.00;0.62;2.07;1.10;;;19.00;20.60;;;;;;2242133;61;20903;-58
2021/03/20 09:35:20;0.00;0.00;0.62;0.00;0.00;0.62;1.60;1.20;;;19.10;20.60;;;;;;2241820;62;20439;-60
2021/03/20 09:38:05;0.00;0.00;0.62;0.00;0.00;0.62;4.17;1.67;;;19.10;20.70;;;;;;2241935;62;20371;-59
2021/03/20 09:40:55;0.00;0.00;0.62;0.00;0.00;0.62;1.87;1.10;;;19.10;20.70;;;;;;2241689;62;20410;-59
2021/03/20 09:43:45;0.00;0.00;0.62;0.00;0.00;0.62;7.07;2.10;;;19.10;20.70;;;;;;2241129;61;20402;-62
2021/03/20 09:46:51;0.00;0.00;0.62;0.00;0.00;0.62;3.00;1.30;;;19.20;20.80;;;;;;2242308;62;20780;-61
2021/03/20 09:50:00;0.00;0.00;0.62;0.00;0.00;0.62;1.97;1.40;;;19.20;20.80;;;;;;2241547;62;20364;-59
2021/03/20 09:52:51;0.00;0.00;0.62;0.00;0.00;0.62;2.10;1.40;;;19.20;20.80;;;;;;2242016;61;20501;-59
2021/03/20 09:55:43;0.00;0.00;0.62;0.00;0.00;0.62;2.13;1.30;;;19.30;20.90;;;;;;2242109;62;20417;-60
2021/03/20 09:58:42;0.00;0.00;0.62;0.00;0.00;0.62;2.53;1.20;;;19.30;20.90;;;;;;2241678;62;20369;-61
2021/03/20 10:01:46;0.00;0.00;0.62;0.00;0.00;0.62;1.43;1.00;;;19.30;20.90;;;;;;2241694;62;20376;-61
2021/03/20 10:04:58;0.00;0.00;0.62;0.00;0.00;0.62;1.93;1.03;;;19.40;21.00;;;;;;2241739;62;20804;-60
2021/03/20 10:07:57;0.00;0.00;0.62;0.00;0.00;0.62;2.20;1.23;;;19.40;21.00;;;;;;2242319;62;20371;-58
2021/03/20 10:10:51;0.00;0.00;0.62;0.00;0.00;0.62;2.93;1.10;;;19.50;21.10;;;;;;2241994;62;20804;-60
2021/03/20 10:13:42;0.00;0.00;0.62;0.00;0.00;0.62;2.33;1.30;;;19.50;21.00;;;;;;2241609;61;20423;-59
2021/03/20 10:16:31;0.00;0.00;0.62;0.00;0.00;0.62;2.13;1.47;;;19.50;21.10;;;;;;2241912;61;20428;-59
2021/03/20 10:19:16;0.00;0.00;0.62;0.00;0.00;0.62;1.60;1.07;;;19.60;21.20;;;;;;2241123;62;20714;-60
2021/03/20 10:22:06;0.00;0.00;0.62;0.00;0.00;0.62;1.90;1.00;;;19.60;21.10;;;;;;2241762;61;20485;-61
2021/03/20 10:24:55;0.00;0.00;0.62;0.00;0.00;0.62;1.47;1.00;;;19.60;21.10;;;;;;2242023;62;20449;-60
2021/03/20 10:27:47;0.00;0.00;0.62;0.00;0.00;0.62;1.77;1.07;;;19.70;21.20;;;;;;2241451;62;20378;-61
2021/03/20 10:30:35;0.00;0.00;0.62;0.00;0.00;0.62;1.77;1.30;;;19.70;21.20;;;;;;2242237;62;20364;-61
2021/03/20 10:33:27;0.00;0.00;0.62;0.00;0.00;0.62;1.80;1.20;;;19.80;21.30;;;;;;2241884;61;20396;-60
2021/03/20 10:36:27;0.00;0.00;0.62;0.00;0.00;0.62;2.53;1.07;;;19.80;21.30;;;;;;2241991;62;20377;-60
2021/03/20 10:39:29;0.00;0.00;0.62;0.00;0.00;0.62;1.50;0.90;;;19.80;21.20;;;;;;2239006;62;20369;-60
2021/03/20 10:42:24;0.00;0.00;0.62;0.00;0.00;0.62;1.50;1.10;;;19.90;21.30;;;;;;2241602;61;20421;-61
2021/03/20 10:45:25;0.00;0.00;0.62;0.00;0.00;0.62;1.83;1.20;;;20.00;21.30;;;;;;2241956;62;20731;-60
2021/03/20 10:48:17;0.00;0.00;0.62;0.00;0.00;0.62;2.40;1.30;;;20.00;21.40;;;;;;2241231;62;20716;-60
2021/03/20 10:51:06;0.00;0.00;0.62;0.00;0.00;0.62;1.23;0.73;;;20.00;21.30;;;;;;2241802;62;20624;-60
2021/03/20 10:53:55;0.00;0.00;0.62;0.00;0.00;0.62;1.43;0.90;;;20.00;21.30;;;;;;2241660;61;20392;-61
2021/03/20 10:56:42;0.00;0.00;0.62;0.00;0.00;0.62;1.23;0.90;;;20.10;21.40;;;;;;2241781;62;20738;-61
2021/03/20 10:59:35;0.00;0.00;0.62;0.00;0.00;0.62;1.47;0.90;;;20.20;21.40;;;;;;2242199;62;20416;-59
2021/03/20 11:02:41;0.00;0.00;0.62;0.00;0.00;0.62;1.93;1.13;;;20.20;21.40;;;;;;2241260;61;20371;-60
2021/03/20 11:05:33;0.00;0.00;0.62;0.00;0.00;0.62;4.23;1.10;;;20.30;21.40;;;;;;2241720;62;20404;-61
2021/03/20 11:08:27;0.00;0.00;0.62;0.00;0.00;0.62;1.67;0.90;;;20.30;21.40;;;;;;2241610;62;20365;-61
2021/03/20 11:11:23;0.00;0.00;0.62;0.00;0.00;0.62;2.67;1.07;;;20.40;21.50;;;;;;2241634;62;20390;-61
2021/03/20 11:14:14;0.00;0.00;0.62;0.00;0.00;0.62;1.40;1.00;;;20.40;21.50;;;;;;2242146;62;20497;-61
2021/03/20 11:17:05;0.00;0.00;0.62;0.00;0.00;0.62;1.43;0.97;;;20.50;21.50;;;;;;2240679;62;20364;-59
2021/03/20 11:20:02;0.00;0.00;0.62;0.00;0.00;0.62;2.03;1.27;;;20.50;21.50;;;;;;2238547;62;20373;-63
2021/03/20 11:22:47;0.00;0.00;0.62;0.00;0.00;0.62;1.87;1.03;;;20.60;21.50;;;;;;2241750;61;20798;-63